createdAt,value
2018-06-11T00:01:22.506Z,72.01
2018-06-11T00:03:51.001Z,71.34
2018-06-11T00:06:19.671Z,71.73
2018-06-11T00:08:48.238Z,71.85
2018-06-11T00:11:17.366Z,71.77
2018-06-11T00:13:45.983Z,71.25
2018-06-11T00:16:15.995Z,72.12
2018-06-11T00:18:44.502Z,71.70
2018-06-11T00:21:13.118Z,70.92
2018-06-11T00:23:41.748Z,70.82
2018-06-11T00:26:11.151Z,70.53
2018-06-11T00:28:39.836Z,70.61
2018-06-11T00:31:08.482Z,71.47
2018-06-11T00:33:37.034Z,70.15
2018-06-11T00:36:05.583Z,70.66
2018-06-11T00:38:34.114Z,71.18
2018-06-11T00:41:02.750Z,72.00
2018-06-11T00:43:31.332Z,72.18
2018-06-11T00:45:59.942Z,71.70
2018-06-11T00:48:28.713Z,71.85
2018-06-11T00:50:57.494Z,71.98
2018-06-11T00:53:26.061Z,72.84
2018-06-11T00:56:07.867Z,71.95
2018-06-11T00:58:36.471Z,72.42
2018-06-11T01:01:05.454Z,71.97
2018-06-11T01:03:34.133Z,71.62
2018-06-11T01:06:02.815Z,72.04
2018-06-11T01:08:31.395Z,71.43
2018-06-11T01:11:00.039Z,70.81
2018-06-11T01:13:28.665Z,71.47
2018-06-11T01:15:58.066Z,70.82
2018-06-11T01:18:26.854Z,70.87
2018-06-11T01:20:55.948Z,70.96
2018-06-11T01:23:24.532Z,70.37
2018-06-11T01:25:53.039Z,70.95
2018-06-11T01:28:21.555Z,70.34
2018-06-11T01:30:50.149Z,70.13
2018-06-11T01:33:19.422Z,70.09
2018-06-11T01:35:48.060Z,69.80
2018-06-11T01:38:16.550Z,69.93
2018-06-11T01:40:45.175Z,69.32
2018-06-11T01:43:13.805Z,69.17
2018-06-11T01:45:42.393Z,69.57
2018-06-11T01:48:10.987Z,69.66
2018-06-11T01:50:39.586Z,70.00
2018-06-11T01:53:08.144Z,69.78
2018-06-11T01:55:36.829Z,70.47
2018-06-11T01:58:05.412Z,70.08
2018-06-11T02:00:34.002Z,70.74
2018-06-11T02:03:02.558Z,70.62
2018-06-11T02:05:31.322Z,70.62
2018-06-11T02:07:59.945Z,70.67
2018-06-11T02:10:28.633Z,70.75
2018-06-11T02:12:57.286Z,70.79
2018-06-11T02:15:26.820Z,70.62
2018-06-11T02:17:55.505Z,70.84
2018-06-11T02:20:24.040Z,71.06
2018-06-11T02:22:52.586Z,71.42
2018-06-11T02:25:21.256Z,70.31
2018-06-11T02:27:49.893Z,71.04
2018-06-11T02:30:19.243Z,70.67
2018-06-11T02:32:47.923Z,70.19
2018-06-11T02:35:16.485Z,70.49
2018-06-11T02:37:45.012Z,71.05
2018-06-11T02:40:13.626Z,70.46
2018-06-11T02:42:42.361Z,70.49
2018-06-11T02:45:11.043Z,70.20
2018-06-11T02:47:39.691Z,71.68
2018-06-11T02:50:08.229Z,70.36
2018-06-11T02:52:36.943Z,71.35
2018-06-11T02:55:05.798Z,70.21
2018-06-11T02:57:34.474Z,71.04
2018-06-11T03:00:04.192Z,70.83
2018-06-11T03:02:32.864Z,70.26
2018-06-11T03:05:01.970Z,71.25
2018-06-11T03:07:30.567Z,71.01
2018-06-11T03:10:13.806Z,72.01
2018-06-11T03:12:43.069Z,71.78
2018-06-11T03:15:12.307Z,72.07
2018-06-11T03:17:41.054Z,72.24
2018-06-11T03:20:09.666Z,71.95
2018-06-11T03:22:38.258Z,72.48
2018-06-11T03:25:07.171Z,73.19
2018-06-11T03:27:35.793Z,72.45
2018-06-11T03:30:04.931Z,72.81
2018-06-11T03:32:33.575Z,72.30
2018-06-11T03:35:02.198Z,71.72
2018-06-11T03:37:30.944Z,70.46
2018-06-11T03:39:59.514Z,68.92
2018-06-11T03:42:28.558Z,69.14
2018-06-11T03:44:57.352Z,68.92
2018-06-11T03:47:26.046Z,67.56
2018-06-11T03:49:55.530Z,66.56
2018-06-11T03:52:24.086Z,66.95
2018-06-11T03:54:52.852Z,66.14
2018-06-11T03:57:21.397Z,67.55
2018-06-11T03:59:50.033Z,66.78
2018-06-11T04:02:19.438Z,66.18
2018-06-11T04:04:48.099Z,66.77
2018-06-11T04:07:16.805Z,66.78
2018-06-11T04:09:45.402Z,66.61
2018-06-11T04:12:14.011Z,68.79
2018-06-11T04:14:42.529Z,68.32
2018-06-11T04:17:11.243Z,67.15
2018-06-11T04:19:39.772Z,67.23
2018-06-11T04:22:08.302Z,67.47
2018-06-11T04:24:36.988Z,66.57
2018-06-11T04:27:05.590Z,66.31
2018-06-11T04:29:34.256Z,65.82
2018-06-11T04:32:02.754Z,66.36
2018-06-11T04:34:31.422Z,65.82
2018-06-11T04:37:00.108Z,66.45
2018-06-11T04:39:28.696Z,66.78
2018-06-11T04:41:57.294Z,67.36
2018-06-11T04:44:25.922Z,67.39
2018-06-11T04:46:54.489Z,67.43
2018-06-11T04:49:23.020Z,67.80
2018-06-11T04:51:51.614Z,67.69
2018-06-11T04:54:20.189Z,68.98
2018-06-11T04:56:48.786Z,69.13
2018-06-11T04:59:17.374Z,69.49
2018-06-11T05:01:45.939Z,69.38
2018-06-11T05:04:14.592Z,70.26
2018-06-11T05:06:43.204Z,68.97
2018-06-11T05:09:11.827Z,70.04
2018-06-11T05:11:40.475Z,70.90
2018-06-11T05:14:09.054Z,70.90
2018-06-11T05:16:37.685Z,70.43
2018-06-11T05:19:06.194Z,70.66
2018-06-11T05:21:34.715Z,70.38
2018-06-11T05:24:03.387Z,70.35
2018-06-11T05:26:31.990Z,71.17
2018-06-11T05:29:00.655Z,70.34
2018-06-11T05:31:29.231Z,71.13
2018-06-11T05:33:57.737Z,71.12
2018-06-11T05:36:26.405Z,70.78
2018-06-11T05:38:54.986Z,71.21
2018-06-11T05:41:23.621Z,71.05
2018-06-11T05:43:52.254Z,70.38
2018-06-11T05:46:20.754Z,71.34
2018-06-11T05:48:49.383Z,69.79
2018-06-11T05:51:17.964Z,69.10
2018-06-11T05:53:46.585Z,68.88
2018-06-11T05:56:15.169Z,69.03
2018-06-11T05:58:43.803Z,68.05
2018-06-11T06:01:12.343Z,68.18
2018-06-11T06:03:41.019Z,68.66
2018-06-11T06:06:09.603Z,68.63
2018-06-11T06:08:38.309Z,68.18
2018-06-11T06:11:06.886Z,66.73
2018-06-11T06:13:35.430Z,67.10
2018-06-11T06:16:04.139Z,65.93
2018-06-11T06:18:32.719Z,65.64
2018-06-11T06:21:01.304Z,65.55
2018-06-11T06:23:30.093Z,66.00
2018-06-11T06:25:58.657Z,65.99
2018-06-11T06:28:27.258Z,66.49
2018-06-11T06:30:55.840Z,65.90
2018-06-11T06:33:24.451Z,65.21
2018-06-11T06:35:53.126Z,64.94
2018-06-11T06:38:23.229Z,65.23
2018-06-11T06:40:51.841Z,64.74
2018-06-11T06:43:20.498Z,64.48
2018-06-11T06:45:49.098Z,64.62
2018-06-11T06:48:17.711Z,63.35
2018-06-11T06:50:46.452Z,63.17
2018-06-11T06:53:15.618Z,63.05
2018-06-11T06:55:44.332Z,62.80
2018-06-11T06:58:12.913Z,62.87
2018-06-11T07:00:42.075Z,61.63
2018-06-11T07:03:10.611Z,60.69
2018-06-11T07:05:39.278Z,61.00
2018-06-11T07:08:07.972Z,61.82
2018-06-11T07:10:36.655Z,62.34
2018-06-11T07:13:05.423Z,61.89
2018-06-11T07:15:34.122Z,60.70
2018-06-11T07:18:02.735Z,61.90
2018-06-11T07:20:31.399Z,61.10
2018-06-11T07:22:59.969Z,61.08
2018-06-11T07:25:28.552Z,60.33
2018-06-11T07:27:57.294Z,59.41
2018-06-11T07:30:25.878Z,59.68
2018-06-11T07:32:54.453Z,61.71
2018-06-11T07:35:23.754Z,62.94
2018-06-11T07:37:52.403Z,62.98
2018-06-11T07:40:21.081Z,63.00
2018-06-11T07:42:49.675Z,61.78
2018-06-11T07:45:18.338Z,61.78
2018-06-11T07:47:47.808Z,59.48
2018-06-11T07:50:17.255Z,59.84
2018-06-11T07:52:45.838Z,60.78
2018-06-11T07:55:14.390Z,61.07
2018-06-11T07:57:43.075Z,59.87
2018-06-11T08:00:11.630Z,59.80
2018-06-11T08:02:40.306Z,60.97
2018-06-11T08:05:09.992Z,61.91
2018-06-11T08:07:38.583Z,60.92
2018-06-11T08:10:07.245Z,60.99
2018-06-11T08:12:35.762Z,61.95
2018-06-11T08:15:04.514Z,62.20
2018-06-11T08:17:33.175Z,61.85
2018-06-11T08:20:01.827Z,61.99
2018-06-11T08:22:30.421Z,61.91
2018-06-11T08:24:59.152Z,61.69
2018-06-11T08:27:27.795Z,61.20
2018-06-11T08:29:56.367Z,62.40
2018-06-11T08:32:24.935Z,63.77
2018-06-11T08:34:53.447Z,64.50
2018-06-11T08:37:22.069Z,65.36
2018-06-11T08:39:50.670Z,63.98
2018-06-11T08:42:19.288Z,64.65
2018-06-11T08:44:47.859Z,64.72
2018-06-11T08:47:16.503Z,64.67
2018-06-11T08:49:45.130Z,63.53
2018-06-11T08:52:14.319Z,63.77
2018-06-11T08:54:42.965Z,63.13
2018-06-11T08:57:11.650Z,64.03
2018-06-11T08:59:40.290Z,65.95
2018-06-11T09:02:08.921Z,66.88
2018-06-11T09:04:37.562Z,66.68
2018-06-11T09:07:06.323Z,67.05
2018-06-11T09:09:35.077Z,67.04
2018-06-11T09:12:03.698Z,67.75
2018-06-11T09:14:32.451Z,69.95
2018-06-11T09:17:01.033Z,71.23
2018-06-11T09:19:29.717Z,72.04
2018-06-11T09:21:58.404Z,72.10
2018-06-11T09:24:27.087Z,71.53
2018-06-11T09:26:55.658Z,70.65
2018-06-11T09:29:24.263Z,70.78
2018-06-11T09:31:52.837Z,71.35
2018-06-11T09:34:21.436Z,73.05
2018-06-11T09:36:50.054Z,70.88
2018-06-11T09:39:18.692Z,71.08
2018-06-11T09:41:47.372Z,70.02
2018-06-11T09:44:16.912Z,70.73
2018-06-11T09:46:45.504Z,72.05
2018-06-11T09:49:14.250Z,72.83
2018-06-11T09:51:42.803Z,72.22
2018-06-11T09:54:11.327Z,72.26
2018-06-11T09:56:39.998Z,72.57
2018-06-11T09:59:08.680Z,71.47
2018-06-11T10:01:38.188Z,71.92
2018-06-11T10:04:06.801Z,71.18
2018-06-11T10:06:35.413Z,70.58
2018-06-11T10:09:04.470Z,71.75
2018-06-11T10:11:33.232Z,71.52
2018-06-11T10:14:02.841Z,72.46
2018-06-11T10:16:31.525Z,73.29
2018-06-11T10:19:00.282Z,72.96
2018-06-11T10:21:28.807Z,71.71
2018-06-11T10:23:57.382Z,72.94
2018-06-11T10:26:26.038Z,74.76
2018-06-11T10:28:54.696Z,75.84
2018-06-11T10:31:23.242Z,75.44
2018-06-11T10:33:51.866Z,76.49
2018-06-11T10:36:20.481Z,75.22
2018-06-11T10:38:48.992Z,75.86
2018-06-11T10:41:18.218Z,76.13
2018-06-11T10:43:46.836Z,76.52
2018-06-11T10:46:15.354Z,75.86
2018-06-11T10:48:43.862Z,77.64
2018-06-11T10:51:12.406Z,77.34
2018-06-11T10:53:40.985Z,76.17
2018-06-11T10:56:09.567Z,75.99
2018-06-11T10:58:38.793Z,75.32
2018-06-11T11:01:07.656Z,75.25
2018-06-11T11:03:39.153Z,75.28
2018-06-11T11:06:08.644Z,74.69
2018-06-11T11:08:37.300Z,73.57
2018-06-11T11:11:06.041Z,73.19
2018-06-11T11:13:34.664Z,71.83
2018-06-11T11:16:04.272Z,72.71
2018-06-11T11:18:32.778Z,73.26
2018-06-11T11:21:01.540Z,72.93
2018-06-11T11:23:30.231Z,73.67
2018-06-11T11:25:59.526Z,72.17
2018-06-11T11:28:28.106Z,71.12
2018-06-11T11:30:56.793Z,70.93
2018-06-11T11:33:25.430Z,71.65
2018-06-11T11:35:53.926Z,71.09
2018-06-11T11:38:22.541Z,70.58
2018-06-11T11:40:51.650Z,71.32
2018-06-11T11:43:21.039Z,72.46
2018-06-11T11:45:49.623Z,70.55
2018-06-11T11:48:18.219Z,70.45
2018-06-11T11:50:46.890Z,71.24
2018-06-11T11:53:16.394Z,71.58
2018-06-11T11:55:45.080Z,71.58
2018-06-11T11:58:13.663Z,71.92
2018-06-11T12:00:42.256Z,71.80
2018-06-11T12:03:10.850Z,71.51
2018-06-11T12:05:39.513Z,71.39
2018-06-11T12:08:08.078Z,71.25
2018-06-11T12:10:36.783Z,71.60
2018-06-11T12:13:05.349Z,70.73
2018-06-11T12:15:34.152Z,70.73
2018-06-11T12:18:02.838Z,71.01
2018-06-11T12:20:31.409Z,71.15
2018-06-11T12:23:00.100Z,71.47
2018-06-11T12:25:29.331Z,71.37
2018-06-11T12:27:57.911Z,71.03
2018-06-11T12:30:26.470Z,71.87
2018-06-11T12:32:55.153Z,71.28
2018-06-11T12:35:23.791Z,70.36
2018-06-11T12:37:53.598Z,70.69
2018-06-11T12:40:22.339Z,70.34
2018-06-11T12:42:50.853Z,70.46
2018-06-11T12:45:19.511Z,72.02
2018-06-11T12:47:48.502Z,72.49
2018-06-11T12:50:18.330Z,72.60
2018-06-11T12:52:47.056Z,72.21
2018-06-11T12:55:15.677Z,72.69
2018-06-11T12:57:44.362Z,73.44
2018-06-11T13:00:12.890Z,74.68
2018-06-11T13:02:41.486Z,74.23
2018-06-11T13:05:10.015Z,74.04
2018-06-11T13:07:38.821Z,74.07
2018-06-11T13:10:07.484Z,72.85
2018-06-11T13:12:36.270Z,73.54
2018-06-11T13:15:05.469Z,73.22
2018-06-11T13:17:34.150Z,72.30
2018-06-11T13:20:02.770Z,72.07
2018-06-11T13:22:31.368Z,72.99
2018-06-11T13:24:59.938Z,73.34
2018-06-11T13:27:29.095Z,71.84
2018-06-11T13:29:57.782Z,71.53
2018-06-11T13:32:26.442Z,71.82
2018-06-11T13:34:54.986Z,71.91
2018-06-11T13:37:24.395Z,71.30
2018-06-11T13:39:52.960Z,71.76
2018-06-11T13:42:21.564Z,71.71
2018-06-11T13:44:50.306Z,71.56
2018-06-11T13:47:18.906Z,72.43
2018-06-11T13:49:47.570Z,72.03
2018-06-11T13:52:16.256Z,71.89
2018-06-11T13:54:44.862Z,72.77
2018-06-11T13:57:13.421Z,72.23
2018-06-11T13:59:41.960Z,72.57
2018-06-11T14:02:10.588Z,72.14
2018-06-11T14:04:40.405Z,72.58
2018-06-11T14:07:09.743Z,73.46
2018-06-11T14:09:38.298Z,72.36
2018-06-11T14:12:06.967Z,71.36
2018-06-11T14:14:35.562Z,71.94
2018-06-11T14:17:04.382Z,71.56
2018-06-11T14:19:33.229Z,71.66
2018-06-11T14:22:02.063Z,71.04
2018-06-11T14:24:30.701Z,70.89
2018-06-11T14:26:59.322Z,71.53
2018-06-11T14:29:27.868Z,70.87
2018-06-11T14:31:56.405Z,70.78
2018-06-11T14:34:24.931Z,70.85
2018-06-11T14:36:53.538Z,70.85
2018-06-11T14:39:22.164Z,70.64
2018-06-11T14:41:50.783Z,71.00
2018-06-11T14:44:19.465Z,70.69
2018-06-11T14:46:48.080Z,70.83
2018-06-11T14:49:16.938Z,70.50
2018-06-11T14:51:45.427Z,70.38
2018-06-11T14:54:14.157Z,70.87
2018-06-11T14:56:42.719Z,70.69
2018-06-11T14:59:11.375Z,70.67
2018-06-11T15:01:39.895Z,70.90
2018-06-11T15:04:08.454Z,71.21
2018-06-11T15:06:37.911Z,71.56
2018-06-11T15:09:07.896Z,71.14
2018-06-11T15:11:36.632Z,71.88
2018-06-11T15:14:05.429Z,71.46
2018-06-11T15:16:34.075Z,71.04
2018-06-11T15:19:03.305Z,70.10
2018-06-11T15:21:31.898Z,70.25
2018-06-11T15:24:00.501Z,69.54
2018-06-11T15:26:29.237Z,69.11
2018-06-11T15:28:57.851Z,69.41
2018-06-11T15:31:27.250Z,69.02
2018-06-11T15:33:56.794Z,69.52
2018-06-11T15:36:25.439Z,69.56
2018-06-11T15:38:54.125Z,70.35
2018-06-11T15:41:22.812Z,70.31
2018-06-11T15:43:51.427Z,70.45
2018-06-11T15:46:20.022Z,71.10
2018-06-11T15:48:48.770Z,71.23
2018-06-11T15:51:17.334Z,72.69
2018-06-11T15:53:46.516Z,73.17
2018-06-11T15:56:15.632Z,73.85
2018-06-11T15:58:44.224Z,74.84
2018-06-11T16:01:12.857Z,75.61
2018-06-11T16:03:41.487Z,76.50
2018-06-11T16:06:10.338Z,76.93
2018-06-11T16:08:38.945Z,77.39
2018-06-11T16:11:08.018Z,77.13
2018-06-11T16:13:36.569Z,77.22
2018-06-11T16:16:05.437Z,77.62
2018-06-11T16:18:35.381Z,77.11
2018-06-11T16:21:04.669Z,77.02
2018-06-11T16:23:33.219Z,74.80
2018-06-11T16:26:01.895Z,75.51
2018-06-11T16:28:30.643Z,75.52
2018-06-11T16:31:00.049Z,75.79
2018-06-11T16:33:28.722Z,75.53
2018-06-11T16:35:58.905Z,75.59
2018-06-11T16:38:27.590Z,75.61
2018-06-11T16:40:56.195Z,74.92
2018-06-11T16:43:24.805Z,74.86
2018-06-11T16:45:53.440Z,75.05
2018-06-11T16:48:22.328Z,74.66
2018-06-11T16:50:51.117Z,73.95
2018-06-11T16:53:19.802Z,74.73
2018-06-11T16:55:48.389Z,74.92
2018-06-11T16:58:17.008Z,74.18
2018-06-11T17:00:45.654Z,74.17
2018-06-11T17:03:14.282Z,74.19
2018-06-11T17:05:43.636Z,74.05
2018-06-11T17:08:12.323Z,74.06
2018-06-11T17:10:40.915Z,73.09
2018-06-11T17:13:09.545Z,73.19
2018-06-11T17:15:38.178Z,73.90
2018-06-11T17:18:06.807Z,74.23
2018-06-11T17:20:35.383Z,74.27
2018-06-11T17:23:04.639Z,74.77
2018-06-11T17:25:33.709Z,74.81
2018-06-11T17:28:02.274Z,74.91
2018-06-11T17:30:30.899Z,75.37
2018-06-11T17:32:59.527Z,75.76
2018-06-11T17:35:28.168Z,76.53
2018-06-11T17:37:56.818Z,76.56
2018-06-11T17:40:25.426Z,77.57
2018-06-11T17:42:53.963Z,77.74
2018-06-11T17:45:22.602Z,76.51
2018-06-11T17:47:51.149Z,76.11
2018-06-11T17:50:21.121Z,75.09
2018-06-11T17:52:49.993Z,74.93
2018-06-11T17:55:18.612Z,74.64
2018-06-11T17:57:47.261Z,73.52
2018-06-11T18:00:15.758Z,72.81
2018-06-11T18:02:44.407Z,72.16
2018-06-11T18:05:12.931Z,71.58
2018-06-11T18:07:41.526Z,71.54
2018-06-11T18:10:10.102Z,71.72
2018-06-11T18:12:38.664Z,71.74
2018-06-11T18:15:07.233Z,71.96
2018-06-11T18:17:35.715Z,71.51
2018-06-11T18:20:05.070Z,71.78
2018-06-11T18:22:33.614Z,71.58
2018-06-11T18:25:02.288Z,71.88
2018-06-11T18:27:30.885Z,71.50
2018-06-11T18:29:59.448Z,71.18
2018-06-11T18:32:28.053Z,70.65
2018-06-11T18:34:57.184Z,70.70
2018-06-11T18:37:25.761Z,70.90
2018-06-11T18:39:55.256Z,70.97
2018-06-11T18:42:23.868Z,71.32
2018-06-11T18:44:52.482Z,71.57
2018-06-11T18:47:20.991Z,71.58
2018-06-11T18:49:49.610Z,71.82
2018-06-11T18:52:18.178Z,72.05
2018-06-11T18:54:46.806Z,72.28
2018-06-11T18:57:15.503Z,72.31
2018-06-11T18:59:44.798Z,72.90
2018-06-11T19:02:13.585Z,72.92
2018-06-11T19:04:42.806Z,73.06
2018-06-11T19:07:11.468Z,73.17
2018-06-11T19:09:40.114Z,73.42
2018-06-11T19:12:08.791Z,73.00
2018-06-11T19:14:38.445Z,73.55
2018-06-11T19:17:08.255Z,73.66
2018-06-11T19:19:36.945Z,73.38
2018-06-11T19:22:05.780Z,73.43
2018-06-11T19:24:35.446Z,74.18
2018-06-11T19:27:04.123Z,74.21
2018-06-11T19:29:32.808Z,74.56
2018-06-11T19:32:01.447Z,74.60
2018-06-11T19:34:30.102Z,74.36
2018-06-11T19:36:58.800Z,74.93
2018-06-11T19:39:27.561Z,74.92
2018-06-11T19:41:56.197Z,74.48
2018-06-11T19:44:24.748Z,74.96
2018-06-11T19:46:54.152Z,74.33
2018-06-11T19:49:23.010Z,74.48
2018-06-11T19:51:51.675Z,74.93
2018-06-11T19:54:20.354Z,75.89
2018-06-11T19:56:49.064Z,75.10
2018-06-11T19:59:17.815Z,76.12
2018-06-11T20:01:46.493Z,75.46
2018-06-11T20:04:15.127Z,75.40
2018-06-11T20:06:43.704Z,75.79
2018-06-11T20:09:12.199Z,75.38
2018-06-11T20:11:40.820Z,76.29
2018-06-11T20:14:10.373Z,76.83
2018-06-11T20:16:38.959Z,76.03
2018-06-11T20:19:07.641Z,76.22
2018-06-11T20:21:36.308Z,76.22
2018-06-11T20:24:05.011Z,76.39
2018-06-11T20:26:34.219Z,76.23
2018-06-11T20:29:03.098Z,77.08
2018-06-11T20:31:31.749Z,76.64
2018-06-11T20:34:00.571Z,76.45
2018-06-11T20:36:29.257Z,76.70
2018-06-11T20:38:57.839Z,76.49
2018-06-11T20:41:26.518Z,76.60
2018-06-11T20:43:55.211Z,76.54
2018-06-11T20:46:23.748Z,77.02
2018-06-11T20:48:52.376Z,76.98
2018-06-11T20:51:20.991Z,76.30
2018-06-11T20:53:49.693Z,76.40
2018-06-11T20:56:18.354Z,76.31
2018-06-11T20:58:47.023Z,76.17
2018-06-11T21:01:15.704Z,76.61
2018-06-11T21:03:44.281Z,76.53
2018-06-11T21:06:12.790Z,76.67
2018-06-11T21:08:41.386Z,76.92
2018-06-11T21:11:10.033Z,76.94
2018-06-11T21:13:38.716Z,76.66
2018-06-11T21:16:07.746Z,76.24
2018-06-11T21:18:36.808Z,76.78
2018-06-11T21:21:05.540Z,76.92
2018-06-11T21:23:34.114Z,77.17
2018-06-11T21:26:02.757Z,76.58
2018-06-11T21:28:31.267Z,77.04
2018-06-11T21:30:59.771Z,77.55
2018-06-11T21:33:28.403Z,77.09
2018-06-11T21:35:57.088Z,77.09
2018-06-11T21:38:25.736Z,77.26
2018-06-11T21:40:54.279Z,77.19
2018-06-11T21:43:22.940Z,77.80
2018-06-11T21:45:51.467Z,77.10
2018-06-11T21:48:20.054Z,77.72
2018-06-11T21:50:48.645Z,77.46
2018-06-11T21:53:17.271Z,77.36
2018-06-11T21:55:45.822Z,78.36
2018-06-11T21:58:14.336Z,78.51
2018-06-11T22:00:42.990Z,77.97
2018-06-11T22:03:11.503Z,78.58
2018-06-11T22:05:40.021Z,78.67
2018-06-11T22:08:08.611Z,79.24
2018-06-11T22:10:37.247Z,79.78
2018-06-11T22:13:06.444Z,79.60
2018-06-11T22:15:35.130Z,80.59
2018-06-11T22:18:03.898Z,80.12
2018-06-11T22:20:32.604Z,80.05
2018-06-11T22:23:01.289Z,81.02
2018-06-11T22:25:29.798Z,82.92
2018-06-11T22:27:58.378Z,83.81
2018-06-11T22:30:27.177Z,85.68
2018-06-11T22:32:55.671Z,83.69
2018-06-11T22:35:25.374Z,84.84
2018-06-11T22:37:53.956Z,85.55
2018-06-11T22:40:22.587Z,83.85
2018-06-11T22:42:51.741Z,83.48
2018-06-11T22:45:20.378Z,85.88
2018-06-11T22:47:48.866Z,86.05
2018-06-11T22:50:17.544Z,84.74
2018-06-11T22:52:46.842Z,85.20
2018-06-11T22:55:15.337Z,84.50
2018-06-11T22:57:43.907Z,83.99
2018-06-11T23:00:13.411Z,84.35
2018-06-11T23:02:41.906Z,83.90
2018-06-11T23:05:10.596Z,84.50
2018-06-11T23:07:39.264Z,85.04
2018-06-11T23:10:07.790Z,86.17
2018-06-11T23:12:36.427Z,84.48
2018-06-11T23:15:05.019Z,84.52
2018-06-11T23:17:33.703Z,84.40
2018-06-11T23:20:02.268Z,83.75
2018-06-11T23:22:30.754Z,84.21
2018-06-11T23:24:59.341Z,84.02
2018-06-11T23:27:28.026Z,83.36
2018-06-11T23:29:56.631Z,83.54
2018-06-11T23:32:25.347Z,83.17
2018-06-11T23:34:54.492Z,83.28
2018-06-11T23:37:23.075Z,83.95
2018-06-11T23:39:51.657Z,83.53
2018-06-11T23:42:20.178Z,83.34
2018-06-11T23:44:48.822Z,83.90
2018-06-11T23:47:17.314Z,83.69
2018-06-11T23:49:45.988Z,84.76
2018-06-11T23:52:14.751Z,86.27
2018-06-11T23:54:43.461Z,86.92
2018-06-11T23:57:12.082Z,86.63
2018-06-11T23:59:40.730Z,87.26
